Time;durP1;ratioP1;P1;durP2;ratioP2;P2;SDS_P1;SDS_P2;PMS_P1;PMS_P2;Temp;Humidity;BMP_temperature;BMP_pressure;BME280_temperature;BME280_humidity;BME280_pressure;Samples;Min_cycle;Max_cycle;Signal;HPM_P1;HPM_P2
2021/11/19 00:02:00;;;;;;;48.58;24.13;;;9.50;99.90;;;10.20;100.00;101759.94;5069137;28;20178;-81
2021/11/19 00:04:30;;;;;;;52.72;24.77;;;9.50;99.90;;;10.24;100.00;101758.91;5051605;28;20028;-82
2021/11/19 00:06:58;;;;;;;51.22;26.88;;;9.50;99.90;;;10.27;100.00;101760.25;5053169;28;20025;-83
2021/11/19 00:09:25;;;;;;;48.60;23.63;;;9.50;99.90;;;10.27;100.00;101758.28;5043009;28;20095;-82
2021/11/19 00:11:54;;;;;;;53.75;22.33;;;9.50;99.90;;;10.32;100.00;101754.50;5033890;28;20089;-85
2021/11/19 00:14:23;;;;;;;51.60;24.52;;;9.50;99.90;;;10.28;100.00;101751.53;5031910;28;20029;-82
2021/11/19 00:16:57;;;;;;;48.67;23.30;;;9.50;99.90;;;10.20;100.00;101757.13;5032412;28;20029;-84
2021/11/19 00:19:27;;;;;;;45.70;24.73;;;9.50;99.90;;;10.27;100.00;101746.31;5031996;28;20026;-83
2021/11/19 00:21:56;;;;;;;49.97;23.55;;;9.50;99.90;;;10.25;100.00;101743.00;5048337;28;20033;-82
2021/11/19 00:24:24;;;;;;;50.45;24.98;;;9.50;99.90;;;10.23;100.00;101753.69;5032093;28;20116;-82
2021/11/19 00:26:50;;;;;;;48.40;23.65;;;9.50;99.90;;;10.24;100.00;101746.97;5033645;28;20088;-83
2021/11/19 00:29:17;;;;;;;50.55;24.13;;;9.50;99.90;;;10.20;100.00;101743.19;5032882;28;20071;-85
2021/11/19 00:31:44;;;;;;;51.30;25.60;;;9.50;99.90;;;10.21;100.00;101734.47;5032608;28;20021;-85
2021/11/19 00:34:11;;;;;;;47.92;25.00;;;9.50;99.90;;;10.24;100.00;101739.38;5032003;28;20116;-82
2021/11/19 00:36:38;;;;;;;45.15;25.15;;;9.50;99.90;;;10.27;100.00;101737.91;5032623;28;20053;-86
2021/11/19 00:39:15;;;;;;;54.08;25.08;;;9.50;99.90;;;10.29;100.00;101732.81;5035874;28;20029;-84
2021/11/19 00:41:45;;;;;;;50.95;25.73;;;9.50;99.90;;;10.26;100.00;101731.50;5037976;28;20025;-82
2021/11/19 00:44:14;;;;;;;51.15;25.63;;;9.50;99.90;;;10.20;100.00;101738.41;5038151;28;20030;-82
2021/11/19 00:46:44;;;;;;;44.72;24.00;;;9.60;99.90;;;10.30;100.00;101738.09;5038307;28;20069;-82
2021/11/19 00:49:14;;;;;;;46.08;24.17;;;9.50;99.90;;;10.28;100.00;101743.16;5047324;28;20132;-84
2021/11/19 00:51:50;;;;;;;46.65;25.95;;;9.50;99.90;;;10.25;100.00;101740.19;5049002;28;20033;-82
2021/11/19 00:54:17;;;;;;;;;;;9.50;99.90;;;10.30;100.00;101754.00;5053037;28;20097;-83
2021/11/19 00:57:05;;;;;;;43.13;22.58;;;9.50;99.90;;;10.28;100.00;101737.56;5053137;28;19956;-84
2021/11/19 01:00:26;;;;;;;49.65;24.92;;;9.50;99.90;;;10.25;100.00;101748.59;5050762;28;20029;-82
2021/11/19 01:03:21;;;;;;;49.08;25.50;;;9.50;99.90;;;10.32;100.00;101751.69;5059558;28;20028;-83
2021/11/19 01:06:05;;;;;;;49.47;25.38;;;9.50;99.90;;;10.25;100.00;101752.19;5060290;28;20024;-81
2021/11/19 01:08:35;;;;;;;45.00;24.40;;;9.50;99.90;;;10.26;100.00;101750.22;5076237;28;20106;-81
2021/11/19 01:11:08;;;;;;;42.25;24.42;;;9.60;99.90;;;10.31;100.00;101761.22;5059156;28;20029;-81
2021/11/19 01:13:44;;;;;;;47.92;26.45;;;9.50;99.90;;;10.24;100.00;101764.50;5057949;28;20049;-78
2021/11/19 01:16:36;;;;;;;46.53;24.83;;;9.50;99.90;;;10.39;100.00;101758.44;5060011;28;20033;-79
2021/11/19 01:19:12;;;;;;;48.30;24.95;;;9.60;99.90;;;10.36;100.00;101761.91;5058833;28;20038;-80
2021/11/19 01:22:01;;;;;;;42.13;23.50;;;9.60;99.90;;;10.39;100.00;101766.00;5044934;28;20033;-85
2021/11/19 01:24:30;;;;;;;41.65;21.90;;;9.60;99.90;;;10.33;100.00;101761.72;5038364;28;20029;-87
2021/11/19 01:26:57;;;;;;;39.13;21.75;;;9.60;99.90;;;10.33;100.00;101764.53;5070775;23;20128;-76
2021/11/19 01:29:23;;;;;;;41.55;22.92;;;9.60;99.90;;;10.35;100.00;101773.38;5056752;28;20080;-77
2021/11/19 01:32:04;;;;;;;34.80;21.65;;;9.50;99.90;;;10.32;100.00;101768.47;5056193;28;20125;-75
2021/11/19 01:34:30;;;;;;;32.30;18.73;;;9.50;99.90;;;10.27;100.00;101763.88;5038428;28;20108;-75
2021/11/19 01:36:58;;;;;;;33.03;20.17;;;9.50;99.90;;;10.35;100.00;101760.25;5055862;28;20036;-75
2021/11/19 01:39:28;;;;;;;31.83;18.88;;;9.50;99.90;;;10.36;100.00;101764.69;5054946;28;20573;-76
2021/11/19 01:42:24;;;;;;;38.35;19.65;;;9.60;99.90;;;10.34;100.00;101766.97;5037686;28;20129;-75
2021/11/19 01:45:05;;;;;;;33.60;18.80;;;9.50;99.90;;;10.31;100.00;101772.38;5054882;28;20041;-78
2021/11/19 01:47:36;;;;;;;29.50;18.77;;;9.50;99.90;;;10.18;100.00;101774.19;5056435;28;20071;-78
2021/11/19 01:50:19;;;;;;;37.22;20.50;;;9.50;99.90;;;10.21;100.00;101778.34;5055574;28;20025;-77
2021/11/19 01:53:02;;;;;;;38.97;21.90;;;9.50;99.90;;;10.19;100.00;101778.66;5038984;28;20025;-76
2021/11/19 01:55:40;;;;;;;34.58;20.92;;;9.40;99.90;;;10.21;100.00;101778.34;5021032;28;20366;-77
2021/11/19 01:58:14;;;;;;;39.80;22.40;;;9.40;99.90;;;10.23;100.00;101782.44;5053926;28;20017;-75
2021/11/19 02:00:55;;;;;;;42.67;22.23;;;9.40;99.90;;;10.16;100.00;101775.69;5053499;28;20032;-77
2021/11/19 02:03:33;;;;;;;51.20;24.15;;;9.40;99.90;;;10.21;100.00;101770.75;5058743;28;20040;-75
2021/11/19 02:06:19;;;;;;;42.60;24.58;;;9.40;99.90;;;10.17;100.00;101774.53;5058255;28;20052;-78
2021/11/19 02:08:52;;;;;;;50.58;23.30;;;9.40;99.90;;;10.18;100.00;101777.00;5054215;28;20029;-74
2021/11/19 02:12:00;;;;;;;45.28;24.77;;;9.40;99.90;;;10.17;100.00;101777.34;5038398;28;20029;-77
2021/11/19 02:15:00;;;;;;;45.72;24.10;;;9.40;99.90;;;10.20;100.00;101774.72;5070929;28;20036;-76
2021/11/19 02:17:28;;;;;;;47.30;25.05;;;9.40;99.90;;;10.17;100.00;101777.34;5071062;28;20052;-79
2021/11/19 02:20:04;;;;;;;49.47;26.10;;;9.40;99.90;;;10.18;100.00;101771.41;5022144;28;20033;-79
2021/11/19 02:22:43;;;;;;;43.63;23.73;;;9.40;99.90;;;10.22;100.00;101771.56;5022240;28;20033;-76
2021/11/19 02:25:25;;;;;;;48.30;26.50;;;9.40;99.90;;;10.25;100.00;101768.94;5038929;28;20442;-75
2021/11/19 02:28:07;;;;;;;53.25;26.67;;;9.40;99.90;;;10.22;100.00;101772.41;5043256;28;20056;-76
2021/11/19 02:31:25;;;;;;;51.33;25.95;;;9.40;99.90;;;10.17;100.00;101767.00;5065191;28;20021;-77
2021/11/19 02:33:57;;;;;;;54.72;25.75;;;9.40;99.90;;;10.23;100.00;101757.31;5050471;28;20068;-78
2021/11/19 02:36:45;;;;;;;53.40;26.48;;;9.50;99.90;;;10.28;100.00;101756.28;5043825;28;20033;-77
2021/11/19 02:39:22;;;;;;;52.80;28.10;;;9.50;99.90;;;10.22;100.00;101755.66;5038735;28;20036;-78
2021/11/19 02:41:59;;;;;;;54.72;27.73;;;9.50;99.90;;;10.22;100.00;101752.84;5055194;28;20108;-78
2021/11/19 02:44:34;;;;;;;46.50;26.52;;;9.50;99.90;;;10.26;100.00;101739.88;5061547;28;20059;-77
2021/11/19 02:47:11;;;;;;;51.75;26.67;;;9.50;99.90;;;10.33;100.00;101756.97;5032926;28;20040;-76
2021/11/19 02:49:39;;;;;;;47.05;27.10;;;9.50;99.90;;;10.34;100.00;101752.22;5044982;28;20075;-77
2021/11/19 02:52:17;;;;;;;48.50;26.15;;;9.50;99.90;;;10.36;100.00;101747.09;5059011;28;20029;-76
2021/11/19 02:54:43;;;;;;;50.40;25.73;;;9.60;99.90;;;10.36;100.00;101744.31;5074003;28;20040;-76
2021/11/19 02:57:09;;;;;;;52.95;27.17;;;9.60;99.90;;;10.33;100.00;101743.00;5077934;28;20073;-74
2021/11/19 02:59:37;;;;;;;45.83;26.95;;;9.60;99.90;;;10.42;100.00;101751.38;5073725;28;20045;-75
2021/11/19 03:02:16;;;;;;;44.42;25.67;;;9.60;99.90;;;10.42;100.00;101759.75;5036630;28;20029;-75
2021/11/19 03:04:55;;;;;;;45.33;25.15;;;9.60;99.90;;;10.40;100.00;101754.47;5020009;28;20404;-75
2021/11/19 03:07:23;;;;;;;41.88;26.52;;;9.60;99.90;;;10.37;100.00;101754.34;5054956;28;20029;-76
2021/11/19 03:09:58;;;;;;;45.45;26.25;;;9.60;99.90;;;10.40;100.00;101754.47;5037043;28;20032;-77
2021/11/19 03:12:27;;;;;;;39.78;24.73;;;9.60;99.90;;;10.47;100.00;101754.81;5037676;28;20041;-76
2021/11/19 03:14:57;;;;;;;46.13;25.33;;;9.70;99.90;;;10.46;100.00;101755.16;5036523;28;20036;-75
2021/11/19 03:17:27;;;;;;;43.53;24.33;;;9.70;99.90;;;10.49;100.00;101752.53;5037437;28;20040;-76
2021/11/19 03:19:55;;;;;;;47.45;25.40;;;9.70;99.90;;;10.48;100.00;101748.06;5037655;28;20046;-78
2021/11/19 03:22:28;;;;;;;40.03;22.55;;;9.70;99.90;;;10.53;100.00;101744.31;5055659;28;20429;-76
2021/11/19 03:24:54;;;;;;;37.85;22.05;;;9.70;99.90;;;10.59;100.00;101742.97;5055666;28;20403;-76
2021/11/19 03:27:24;;;;;;;36.28;22.42;;;9.80;99.90;;;10.55;100.00;101740.00;5054099;28;20051;-77
2021/11/19 03:29:51;;;;;;;40.38;22.83;;;9.80;99.90;;;10.53;100.00;101739.50;5053601;28;20025;-76
2021/11/19 03:32:25;;;;;;;38.28;23.38;;;9.80;99.90;;;10.62;100.00;101745.09;5052283;28;20024;-75
2021/11/19 03:34:53;;;;;;;39.25;23.92;;;9.80;99.90;;;10.53;100.00;101745.09;5036175;28;20029;-76
2021/11/19 03:37:20;;;;;;;36.20;21.83;;;9.80;99.90;;;10.57;100.00;101742.47;5035961;28;20029;-77
2021/11/19 03:39:46;;;;;;;37.58;21.52;;;9.80;99.90;;;10.63;100.00;101743.13;5054095;28;20079;-77
2021/11/19 03:42:16;;;;;;;36.83;21.70;;;9.80;99.90;;;10.54;100.00;101746.75;5035701;28;20033;-77
2021/11/19 03:45:03;;;;;;;38.15;21.77;;;9.80;99.90;;;10.54;100.00;101746.75;5052367;28;20060;-79
2021/11/19 03:47:44;;;;;;;38.40;21.70;;;9.80;99.90;;;10.57;100.00;101756.44;5053663;28;20031;-75
2021/11/19 03:50:22;;;;;;;39.97;22.55;;;9.80;99.90;;;10.59;100.00;101760.53;5051220;28;20033;-77
2021/11/19 03:52:50;;;;;;;36.40;21.98;;;9.80;99.90;;;10.55;100.00;101767.94;5068643;28;20052;-76
2021/11/19 03:55:27;;;;;;;37.22;22.17;;;9.80;99.90;;;10.54;100.00;101760.72;5034108;28;20043;-78
2021/11/19 03:57:53;;;;;;;41.05;21.70;;;9.80;99.90;;;10.57;100.00;101765.63;5069037;28;20048;-76
2021/11/19 04:00:39;;;;;;;39.85;22.25;;;9.80;99.90;;;10.59;100.00;101771.69;5067983;28;20063;-78
2021/11/19 04:03:09;;;;;;;35.43;20.97;;;9.80;99.90;;;10.64;100.00;101767.09;5050726;28;20041;-78
2021/11/19 04:05:35;;;;;;;36.30;21.30;;;9.80;99.90;;;10.64;100.00;101765.13;5051292;28;20472;-77
2021/11/19 04:08:03;;;;;;;36.33;22.85;;;9.90;99.90;;;10.59;100.00;101762.53;5068470;28;20139;-77
2021/11/19 04:10:29;;;;;;;36.55;22.45;;;9.80;99.90;;;10.65;100.00;101765.97;5033226;28;20037;-76
2021/11/19 04:12:55;;;;;;;36.40;23.80;;;9.80;99.90;;;10.66;100.00;101767.59;5048147;28;20025;-75
2021/11/19 04:15:37;;;;;;;35.30;21.05;;;9.90;99.90;;;10.66;100.00;101770.41;5030970;28;20040;-76
2021/11/19 04:18:04;;;;;;;36.50;22.15;;;9.90;99.90;;;10.64;100.00;101775.47;5031275;28;20037;-77
2021/11/19 04:20:30;;;;;;;36.45;21.15;;;9.90;99.90;;;10.69;100.00;101773.34;5046222;28;20165;-77
2021/11/19 04:22:57;;;;;;;36.20;21.50;;;9.90;99.90;;;10.68;100.00;101771.72;5047682;28;20045;-77
2021/11/19 04:25:27;;;;;;;38.97;21.85;;;9.90;99.90;;;10.68;100.00;101774.50;5048174;28;20026;-76
2021/11/19 04:27:55;;;;;;;34.63;21.33;;;9.90;99.90;;;10.61;100.00;101776.16;5047068;28;20052;-75
2021/11/19 04:30:32;;;;;;;36.05;21.90;;;9.90;99.90;;;10.66;100.00;101778.78;5046346;28;20029;-77
2021/11/19 04:32:59;;;;;;;36.75;22.33;;;9.90;99.90;;;10.53;100.00;101769.44;5045123;28;20107;-76
2021/11/19 04:35:27;;;;;;;38.60;22.95;;;9.90;99.90;;;10.55;100.00;101775.50;5021049;28;20060;-76
2021/11/19 04:37:54;;;;;;;35.72;22.70;;;9.90;99.90;;;10.67;100.00;101781.22;5036238;28;20156;-79
2021/11/19 04:40:22;;;;;;;37.53;22.30;;;9.90;99.90;;;10.65;100.00;101768.75;5035166;28;20030;-78
2021/11/19 04:42:48;;;;;;;34.78;20.52;;;9.80;99.90;;;10.63;100.00;101771.88;5033361;28;20573;-76
2021/11/19 04:45:23;;;;;;;36.97;21.58;;;9.80;99.90;;;10.53;100.00;101766.66;5034207;28;20072;-75
2021/11/19 04:47:49;;;;;;;34.03;20.77;;;9.80;99.90;;;10.53;100.00;101770.25;5033621;28;20439;-79
2021/11/19 04:50:19;;;;;;;41.42;22.67;;;9.80;99.90;;;10.57;100.00;101773.19;5033962;28;20029;-76
2021/11/19 04:52:47;;;;;;;35.65;21.95;;;9.80;99.90;;;10.55;100.00;101769.91;5015403;28;20481;-77
2021/11/19 04:55:15;;;;;;;36.08;21.88;;;9.80;99.90;;;10.60;100.00;101766.94;5037049;28;20076;-77
2021/11/19 04:57:42;;;;;;;35.67;22.15;;;9.80;99.90;;;10.58;100.00;101775.66;5034119;28;20026;-78
2021/11/19 05:00:22;;;;;;;39.75;20.70;;;9.80;99.90;;;10.61;100.00;101764.97;5033842;28;20103;-76
2021/11/19 05:02:48;;;;;;;35.42;20.10;;;9.80;99.90;;;10.58;100.00;101766.47;5016432;28;20041;-77
2021/11/19 05:05:16;;;;;;;37.22;20.77;;;9.80;99.90;;;10.61;100.00;101771.38;5033369;28;20044;-78
2021/11/19 05:07:42;;;;;;;33.70;19.42;;;9.80;99.90;;;10.62;100.00;101763.84;5032991;28;20022;-76
2021/11/19 05:10:09;;;;;;;32.58;20.35;;;9.80;99.90;;;10.55;100.00;101762.38;5048296;28;20673;-76
2021/11/19 05:12:48;;;;;;;31.17;20.13;;;9.80;99.90;;;10.64;100.00;101764.31;5052740;28;20407;-77
2021/11/19 05:15:15;;;;;;;36.30;21.70;;;9.80;99.90;;;10.59;100.00;101766.13;5051502;28;20021;-76
2021/11/19 05:17:42;;;;;;;36.05;21.77;;;9.80;99.90;;;10.58;100.00;101764.50;5050910;28;20033;-77
2021/11/19 05:20:14;;;;;;;33.50;20.42;;;9.80;99.90;;;10.61;100.00;101767.75;5052788;28;20100;-77
2021/11/19 05:22:42;;;;;;;34.20;19.77;;;9.80;99.90;;;10.66;100.00;101765.59;5052367;28;20514;-77
2021/11/19 05:25:14;;;;;;;32.85;20.00;;;9.80;99.90;;;10.62;100.00;101767.44;5020176;28;20071;-75
2021/11/19 05:27:40;;;;;;;38.65;21.50;;;9.80;99.90;;;10.63;100.00;101760.69;5038037;28;20036;-75
2021/11/19 05:30:09;;;;;;;31.70;19.88;;;9.80;99.90;;;10.67;100.00;101764.47;5038453;28;20032;-77
2021/11/19 05:32:36;;;;;;;37.20;20.42;;;9.80;99.90;;;10.63;100.00;101752.31;5056414;28;20025;-76
2021/11/19 05:35:04;;;;;;;32.25;20.90;;;9.80;99.90;;;10.62;100.00;101758.25;5056733;28;20040;-78
2021/11/19 05:37:30;;;;;;;38.13;20.35;;;9.80;99.90;;;10.58;100.00;101755.28;5055774;28;20035;-77
2021/11/19 05:39:55;;;;;;;35.15;21.67;;;9.80;99.90;;;10.60;100.00;101752.97;5054404;28;20123;-75
2021/11/19 05:42:21;;;;;;;32.38;18.85;;;9.80;99.90;;;10.65;100.00;101754.78;5037479;28;20032;-77
2021/11/19 05:44:47;;;;;;;34.83;21.10;;;9.90;99.90;;;10.69;100.00;101756.56;5056001;28;20471;-77
2021/11/19 05:47:13;;;;;;;35.17;20.85;;;9.80;99.90;;;10.65;100.00;101764.00;5055212;28;20025;-75
2021/11/19 05:49:41;;;;;;;31.90;19.80;;;9.90;99.90;;;10.65;100.00;101769.59;5037876;28;20112;-77
2021/11/19 05:52:11;;;;;;;31.77;18.05;;;9.90;99.90;;;10.70;100.00;101762.97;5037366;28;20082;-76
2021/11/19 05:54:40;;;;;;;31.63;19.90;;;9.80;99.90;;;10.78;100.00;101771.38;5038825;28;20029;-76
2021/11/19 05:57:10;;;;;;;32.45;19.23;;;9.90;99.90;;;10.74;100.00;101769.56;5041574;28;20120;-76
2021/11/19 05:59:38;;;;;;;28.85;18.73;;;9.90;99.90;;;10.76;100.00;101767.22;5055016;28;20036;-77
2021/11/19 06:02:14;;;;;;;36.55;19.20;;;9.90;99.90;;;10.77;100.00;101769.72;5038355;28;20036;-74
2021/11/19 06:04:40;;;;;;;30.65;18.92;;;9.90;99.90;;;10.75;100.00;101777.63;5037784;28;20107;-79
2021/11/19 06:07:06;;;;;;;31.67;19.60;;;9.90;99.90;;;10.72;100.00;101780.25;5037934;28;20124;-76
2021/11/19 06:09:32;;;;;;;35.90;20.25;;;9.90;99.90;;;10.65;100.00;101775.16;5055232;28;20037;-76
2021/11/19 06:12:39;;;;;;;39.83;20.27;;;9.80;99.90;;;10.64;100.00;101781.91;5055679;28;20111;-77
2021/11/19 06:15:18;;;;;;;34.40;19.75;;;9.80;99.90;;;10.68;100.00;101780.09;5030697;28;20135;-78
2021/11/19 06:17:51;;;;;;;30.80;18.40;;;9.80;99.90;;;10.68;100.00;101774.50;5021704;28;20033;-76
2021/11/19 06:20:35;;;;;;;30.02;18.80;;;9.80;99.90;;;10.68;100.00;101770.88;5022372;28;20083;-75
2021/11/19 06:23:15;;;;;;;33.60;19.75;;;9.80;99.90;;;10.65;100.00;101777.97;5059143;28;20118;-78
2021/11/19 06:25:45;;;;;;;35.05;20.80;;;9.80;99.90;;;10.67;100.00;101777.63;5038217;28;20082;-76
2021/11/19 06:28:20;;;;;;;34.38;20.33;;;9.80;99.90;;;10.63;100.00;101777.44;5021226;28;20124;-77
2021/11/19 06:30:47;;;;;;;35.42;21.17;;;9.90;99.90;;;10.66;100.00;101779.59;5038318;28;20033;-76
2021/11/19 06:33:13;;;;;;;32.40;19.50;;;9.90;99.90;;;10.70;100.00;101782.53;5037534;28;20057;-77
2021/11/19 06:35:40;;;;;;;38.60;20.98;;;9.90;99.90;;;10.73;100.00;101779.91;5054278;28;20082;-76
2021/11/19 06:38:07;;;;;;;36.97;20.27;;;9.90;99.90;;;10.74;100.00;101784.34;5037469;28;20024;-77
2021/11/19 06:40:36;;;;;;;31.80;20.27;;;9.90;99.90;;;10.73;100.00;101784.66;5037590;28;20108;-76
2021/11/19 06:43:04;;;;;;;30.80;18.52;;;9.90;99.90;;;10.72;100.00;101783.88;5037687;28;20401;-76
2021/11/19 06:45:31;;;;;;;34.17;20.70;;;9.90;99.90;;;10.72;100.00;101788.63;5054911;28;20037;-77
2021/11/19 06:47:59;;;;;;;34.75;20.08;;;9.90;99.90;;;10.69;100.00;101790.09;5021425;28;20531;-77
2021/11/19 06:50:28;;;;;;;35.28;20.42;;;9.90;99.90;;;10.72;100.00;101791.44;5055520;28;20025;-76
2021/11/19 06:52:58;;;;;;;31.05;19.98;;;9.90;99.90;;;10.71;100.00;101795.38;5021277;28;20518;-74
2021/11/19 06:55:24;;;;;;;34.53;20.13;;;9.90;99.90;;;10.71;100.00;101798.97;5056108;28;20396;-75
2021/11/19 06:57:50;;;;;;;33.28;21.05;;;9.90;99.90;;;10.77;100.00;101802.41;5055676;28;20032;-75
2021/11/19 07:00:30;;;;;;;34.28;19.83;;;9.90;99.90;;;10.78;100.00;101807.69;5055324;28;20060;-75
2021/11/19 07:02:57;;;;;;;36.20;20.35;;;9.90;99.90;;;10.73;100.00;101796.66;5055162;28;20036;-77
2021/11/19 07:05:24;;;;;;;37.38;21.48;;;9.90;99.90;;;10.76;100.00;101807.19;5057924;28;20040;-77
2021/11/19 07:07:52;;;;;;;36.92;21.95;;;9.90;99.90;;;10.78;100.00;101813.28;5048255;28;20025;-77
2021/11/19 07:10:23;;;;;;;36.28;22.17;;;9.90;99.90;;;10.74;100.00;101812.28;5041050;28;20037;-77
2021/11/19 07:12:49;;;;;;;35.05;20.23;;;9.90;99.90;;;10.75;100.00;101813.94;5052917;28;20049;-78
2021/11/19 07:15:16;;;;;;;32.58;20.40;;;9.90;99.90;;;10.79;100.00;101812.09;5020123;28;20370;-75
2021/11/19 07:17:48;;;;;;;34.97;20.73;;;10.00;99.90;;;10.81;100.00;101822.97;5019949;28;20029;-77
2021/11/19 07:20:24;;;;;;;36.40;21.10;;;10.00;99.90;;;10.76;100.00;101807.19;5048565;28;20033;-76
2021/11/19 07:22:50;;;;;;;34.15;20.98;;;10.00;99.90;;;10.75;100.00;101813.13;5032823;28;20033;-79
2021/11/19 07:25:22;;;;;;;35.25;20.77;;;10.00;99.90;;;10.79;100.00;101812.09;5018770;28;20044;-77
2021/11/19 07:27:56;;;;;;;36.28;20.92;;;10.00;99.90;;;10.79;100.00;101828.09;5003129;28;20299;-77
2021/11/19 07:30:33;;;;;;;34.85;19.60;;;10.00;99.90;;;10.85;100.00;101824.75;5057913;28;20033;-77
2021/11/19 07:32:59;;;;;;;31.42;19.10;;;10.00;99.90;;;10.88;100.00;101831.69;5067708;28;20040;-78
2021/11/19 07:35:25;;;;;;;34.92;20.35;;;10.00;99.90;;;10.85;100.00;101838.72;5065623;28;20066;-78
2021/11/19 07:37:51;;;;;;;36.10;20.55;;;10.00;99.90;;;10.88;100.00;101829.72;5055733;28;20032;-78
2021/11/19 07:40:27;;;;;;;35.63;20.92;;;10.00;99.90;;;10.88;100.00;101828.88;5081917;23;20475;-80
2021/11/19 07:42:53;;;;;;;32.22;19.67;;;10.10;99.90;;;10.90;100.00;101826.56;5086997;28;20029;-82
2021/11/19 07:45:19;;;;;;;40.00;20.50;;;10.10;99.90;;;10.91;100.00;101826.25;5072264;28;20476;-79
2021/11/19 07:47:48;;;;;;;32.00;19.00;;;10.10;99.90;;;10.87;100.00;101827.22;5075519;28;20097;-78
2021/11/19 07:50:23;;;;;;;33.63;20.17;;;10.10;99.90;;;10.90;100.00;101824.59;5073878;28;20411;-80
2021/11/19 07:52:49;;;;;;;30.27;18.90;;;10.10;99.90;;;10.94;100.00;101824.75;5072518;28;20039;-79
2021/11/19 07:55:16;;;;;;;36.08;20.65;;;10.10;99.90;;;10.95;100.00;101827.19;5064326;28;20021;-78
2021/11/19 07:57:42;;;;;;;32.17;19.00;;;10.10;99.90;;;10.98;100.00;101834.13;5072329;28;20021;-79
2021/11/19 08:00:19;;;;;;;33.85;20.00;;;10.10;99.90;;;10.94;100.00;101825.59;5071069;28;20041;-78
2021/11/19 08:02:46;;;;;;;30.33;18.98;;;10.10;99.90;;;10.94;100.00;101838.72;5070080;28;20032;-78
2021/11/19 08:05:13;;;;;;;32.47;18.58;;;10.20;99.90;;;11.00;100.00;101827.03;5073961;28;20036;-78
2021/11/19 08:07:41;;;;;;;32.97;19.63;;;10.20;99.90;;;11.01;100.00;101827.88;5074012;28;20093;-79
2021/11/19 08:10:09;;;;;;;27.58;18.25;;;10.20;99.90;;;11.04;100.00;101833.59;5042270;28;20090;-77
2021/11/19 08:12:36;;;;;;;30.73;18.27;;;10.20;99.90;;;10.94;100.00;101831.16;5073555;28;20029;-79
2021/11/19 08:15:03;;;;;;;31.40;18.83;;;10.10;99.90;;;11.01;100.00;101841.84;5075502;28;20392;-80
2021/11/19 08:17:38;;;;;;;27.23;18.10;;;10.20;99.90;;;11.02;100.00;101835.09;5073684;28;20436;-79
2021/11/19 08:20:13;;;;;;;33.17;18.27;;;10.20;99.90;;;10.97;100.00;101836.09;5056703;28;20396;-79
2021/11/19 08:22:40;;;;;;;30.75;18.02;;;10.20;99.90;;;11.02;100.00;101840.69;5073254;28;20433;-79
2021/11/19 08:25:07;;;;;;;31.63;17.88;;;10.20;99.90;;;10.99;100.00;101844.97;5073225;28;20067;-78
2021/11/19 08:27:46;;;;;;;28.80;17.58;;;10.20;99.90;;;11.02;100.00;101841.50;5075178;28;20040;-78
2021/11/19 08:30:40;;;;;;;31.02;18.55;;;10.20;99.90;;;11.01;100.00;101837.06;5073889;28;20036;-77
2021/11/19 08:33:10;;;;;;;26.60;16.98;;;10.20;99.90;;;10.99;100.00;101844.97;5070128;28;20032;-78
2021/11/19 08:35:40;;;;;;;30.40;18.23;;;10.10;99.90;;;11.02;100.00;101832.28;5074111;28;20021;-80
2021/11/19 08:38:18;;;;;;;31.33;17.73;;;10.10;99.90;;;10.99;100.00;101842.16;5072361;28;20028;-80
2021/11/19 08:40:46;;;;;;;30.30;17.10;;;10.10;99.90;;;11.04;100.00;101836.38;5055404;28;20131;-78
2021/11/19 08:43:20;;;;;;;28.63;16.98;;;10.20;99.90;;;10.95;100.00;101843.16;5072389;28;20028;-79
2021/11/19 08:45:48;;;;;;;24.90;15.68;;;10.20;99.90;;;11.03;100.00;101845.94;5073306;28;20402;-79
2021/11/19 08:48:16;;;;;;;26.85;16.38;;;10.20;99.90;;;10.97;100.00;101846.47;5056299;28;20036;-79
2021/11/19 08:50:44;;;;;;;25.23;14.85;;;10.20;99.90;;;11.00;100.00;101855.00;5072786;28;20036;-79
2021/11/19 08:53:15;;;;;;;23.17;14.32;;;10.20;99.90;;;10.95;100.00;101843.16;5073485;28;20043;-79
2021/11/19 08:55:52;;;;;;;23.58;14.55;;;10.20;99.90;;;11.01;100.00;101839.84;5073696;28;20071;-79
2021/11/19 08:58:33;;;;;;;27.80;15.60;;;10.20;99.90;;;11.04;100.00;101847.56;5072198;28;20036;-79
2021/11/19 09:01:04;;;;;;;29.42;16.08;;;10.20;99.90;;;11.04;100.00;101841.19;5075859;28;20054;-80
2021/11/19 09:03:32;;;;;;;26.65;14.65;;;10.20;99.90;;;11.07;100.00;101840.50;5076172;28;20119;-80
2021/11/19 09:05:58;;;;;;;22.85;14.60;;;10.20;99.90;;;10.99;100.00;101844.13;5076404;28;20043;-79
2021/11/19 09:08:29;;;;;;;26.25;15.95;;;10.20;99.90;;;11.05;100.00;101849.22;5075932;28;20458;-80
2021/11/19 09:10:57;;;;;;;24.58;15.80;;;10.20;99.90;;;11.07;100.00;101846.09;5058321;28;20059;-80
2021/11/19 09:13:26;;;;;;;26.73;15.27;;;10.20;99.90;;;11.06;100.00;101845.28;5056349;28;20040;-80
2021/11/19 09:15:56;;;;;;;27.10;15.93;;;10.30;99.90;;;11.08;100.00;101842.97;5056358;28;20021;-80
2021/11/19 09:18:36;;;;;;;25.77;16.30;;;10.30;99.90;;;11.22;100.00;101842.75;5056817;28;20032;-78
2021/11/19 09:21:25;;;;;;;26.20;15.23;;;10.30;99.90;;;11.24;100.00;101846.03;5058087;28;20068;-81
2021/11/19 09:24:09;;;;;;;25.27;15.63;;;10.30;99.90;;;11.17;100.00;101850.53;5060969;28;20040;-79
2021/11/19 09:26:50;;;;;;;23.50;15.38;;;10.40;99.90;;;11.27;100.00;101850.97;5074396;28;20059;-80
2021/11/19 09:29:32;;;;;;;25.35;16.02;;;10.40;99.90;;;11.25;100.00;101853.28;5067068;28;20033;-78
2021/11/19 09:32:00;;;;;;;25.52;16.35;;;10.40;99.90;;;11.23;100.00;101846.38;5055021;28;20029;-78
2021/11/19 09:34:30;;;;;;;25.08;15.32;;;10.40;99.90;;;11.33;100.00;101857.22;5037973;28;20033;-78
2021/11/19 09:36:57;;;;;;;25.80;15.57;;;10.40;99.90;;;11.40;100.00;101857.50;5056318;28;20103;-80
2021/11/19 09:39:27;;;;;;;28.05;17.33;;;10.50;99.90;;;11.32;100.00;101852.78;5054416;28;20049;-78
2021/11/19 09:42:38;;;;;;;27.25;16.85;;;10.50;99.90;;;11.40;100.00;101849.09;5055323;28;20040;-78
2021/11/19 09:45:41;;;;;;;29.77;18.10;;;10.50;99.90;;;11.41;100.00;101848.78;5056012;28;20021;-77
2021/11/19 09:48:58;;;;;;;27.52;17.33;;;10.60;99.90;;;11.40;100.00;101854.69;5055569;28;20055;-77
2021/11/19 09:51:59;;;;;;;28.90;17.88;;;10.60;99.90;;;11.40;100.00;101858.31;5056995;28;20369;-78
2021/11/19 09:55:04;;;;;;;29.65;18.15;;;10.60;99.90;;;11.49;100.00;101858.31;5038698;28;20040;-80
2021/11/19 09:58:26;;;;;;;31.98;18.75;;;10.60;99.90;;;11.54;100.00;101858.13;5056271;28;20033;-80
2021/11/19 10:01:42;;;;;;;28.35;17.92;;;10.60;99.90;;;11.58;100.00;101859.09;5056847;28;20021;-75
2021/11/19 10:04:32;;;;;;;31.33;19.05;;;10.70;99.90;;;11.58;100.00;101856.28;5051575;28;20041;-79
2021/11/19 10:07:39;;;;;;;31.55;18.70;;;10.70;99.90;;;11.46;100.00;101856.97;5056136;28;20056;-77
2021/11/19 10:10:47;;;;;;;32.63;18.88;;;10.70;99.90;;;11.52;100.00;101861.25;5048763;28;20079;-78
2021/11/19 10:13:41;;;;;;;36.22;20.75;;;10.70;99.90;;;11.51;100.00;101858.78;5075902;28;20499;-79
2021/11/19 10:16:35;;;;;;;30.23;18.92;;;10.70;99.90;;;11.52;100.00;101854.84;5076109;28;20032;-77
2021/11/19 10:19:18;;;;;;;34.67;20.83;;;10.70;99.90;;;11.50;100.00;101857.97;5056985;28;20519;-80
2021/11/19 10:22:23;;;;;;;34.60;21.98;;;10.70;99.90;;;11.52;100.00;101857.66;5077284;28;20052;-78
2021/11/19 10:25:37;;;;;;;39.90;22.90;;;10.70;99.90;;;11.46;100.00;101858.97;5076231;28;20031;-78
2021/11/19 10:28:15;;;;;;;39.63;22.77;;;10.70;99.90;;;11.58;100.00;101857.13;5075295;28;20036;-76